| time (UTC) | temp F | wind direction | speed MPH | gust MPH | rain 1hr in | rain 24hr in | rain mn in | humidity % | barometer mb |
| 20260906164539 | 66 | 0 | 0.0 | 0.0 | 0.00 | 0.78 | 0.37 | 75 | 1017.1 |
| 20260906163040 | 65 | 0 | 0.0 | 0.0 | 0.00 | 0.78 | 0.37 | 79 | 1017.1 |
| 20260906161538 | 64 | 0 | 0.0 | 0.0 | 0.00 | 0.78 | 0.37 | 82 | 1017.0 |
| 20260906160043 | 65 | 0 | 0.0 | 0.0 | 0.00 | 0.78 | 0.37 | 82 | 1017.0 |
| 20260906154541 | 62 | 0 | 0.0 | 0.0 | 0.00 | 0.78 | 0.37 | 87 | 1017.3 |
| 20260906153038 | 61 | 0 | 0.0 | 0.0 | 0.00 | 0.78 | 0.37 | 93 | 1017.3 |
| 20260906151542 | 62 | 0 | 0.0 | 0.0 | 0.00 | 0.78 | 0.37 | 90 | 1017.3 |
| 20260906150047 | 59 | 0 | 0.0 | 0.0 | 0.00 | 0.78 | 0.37 | 96 | 1017.4 |
| 20260906144550 | 59 | 0 | 0.0 | 0.0 | 0.00 | 0.78 | 0.37 | 92 | 1017.4 |
| 20260906143043 | 60 | 0 | 0.0 | 0.0 | 0.00 | 0.78 | 0.37 | 92 | 1017.3 |
| 20260906141542 | 59 | 0 | 0.0 | 0.0 | 0.00 | 0.78 | 0.37 | 95 | 1017.2 |
| 20260906140042 | 58 | 0 | 0.0 | 0.0 | 0.00 | 0.78 | 0.37 | 98 | 1017.2 |
| 20260906134542 | 57 | 0 | 0.0 | 0.0 | 0.00 | 0.78 | 0.37 | 98 | 1017.0 |
| 20260906133041 | 57 | 0 | 0.0 | 0.0 | 0.00 | 0.78 | 0.37 | 98 | 1017.2 |
| 20260906131541 | 57 | 0 | 0.0 | 0.0 | 0.00 | 0.78 | 0.37 | 100 | 1017.2 |
| 20260906130044 | 55 | 0 | 0.0 | 0.0 | 0.01 | 0.78 | 0.37 | 99 | 1017.2 |
| 20260906124544 | 55 | 0 | 0.0 | 0.0 | 0.01 | 0.78 | 0.37 | 99 | 1017.1 |
| 20260906123042 | 55 | 0 | 0.0 | 0.0 | 0.01 | 0.78 | 0.37 | 100 | 1017.0 |
| 20260906121544 | 54 | 0 | 0.0 | 0.0 | 0.04 | 0.78 | 0.37 | 99 | 1016.9 |
| 20260906120038 | 54 | 0 | 0.0 | 0.0 | 0.03 | 0.77 | 0.36 | 99 | 1016.8 |
| 20260906114551 | 54 | 0 | 0.0 | 0.0 | 0.04 | 0.77 | 0.36 | 99 | 1016.8 |
| 20260906113052 | 53 | 0 | 0.0 | 0.0 | 0.08 | 0.77 | 0.36 | 99 | 1016.7 |
| 20260906111537 | 53 | 0 | 0.0 | 0.0 | 0.05 | 0.74 | 0.33 | 99 | 1016.6 |
| 20260906110037 | 53 | 0 | 0.0 | 0.0 | 0.07 | 0.74 | 0.33 | 99 | 1016.2 |
| 20260906104541 | 53 | 0 | 0.0 | 0.0 | 0.07 | 0.73 | 0.32 | 99 | 1016.2 |
| 20260906103038 | 53 | 0 | 0.0 | 0.0 | 0.06 | 0.69 | 0.28 | 99 | 1016.2 |
| 20260906101543 | 53 | 0 | 0.0 | 0.0 | 0.11 | 0.69 | 0.28 | 99 | 1016.0 |
| 20260906100041 | 53 | 0 | 0.0 | 0.0 | 0.09 | 0.67 | 0.26 | 99 | 1016.0 |
| 20260906094542 | 53 | 0 | 0.0 | 0.0 | 0.08 | 0.66 | 0.25 | 98 | 1015.8 |
| 20260906093041 | 54 | 0 | 0.0 | 0.0 | 0.04 | 0.62 | 0.21 | 98 | 1015.8 |
| 20260906091540 | 55 | 0 | 0.0 | 0.0 | 0.00 | 0.58 | 0.17 | 99 | 1015.4 |
| 20260906090039 | 55 | 0 | 0.0 | 0.0 | 0.00 | 0.58 | 0.17 | 99 | 1015.2 |
| 20260906084541 | 55 | 0 | 0.0 | 0.0 | 0.00 | 0.58 | 0.17 | 99 | 1015.2 |
| 20260906083039 | 55 | 0 | 0.0 | 0.0 | 0.00 | 0.58 | 0.17 | 99 | 1015.2 |
| 20260906081544 | 55 | 0 | 0.0 | 0.0 | 0.00 | 0.58 | 0.17 | 99 | 1015.2 |
| 20260906080040 | 55 | 0 | 0.0 | 0.0 | 0.03 | 0.58 | 0.17 | 99 | 1015.2 |
| 20260906074545 | 55 | 0 | 0.0 | 0.0 | 0.10 | 0.58 | 0.17 | 98 | 1015.1 |
| 20260906073037 | 56 | 0 | 0.0 | 0.0 | 0.13 | 0.58 | 0.17 | 99 | 1015.0 |
| 20260906071540 | 56 | 0 | 0.0 | 0.0 | 0.13 | 0.58 | 0.17 | 99 | 1015.0 |
| 20260906070037 | 56 | 0 | 0.0 | 0.0 | 0.10 | 0.55 | 0.14 | 99 | 1015.2 |
| 20260906064535 | 56 | 0 | 0.0 | 0.0 | 0.05 | 0.47 | 0.06 | 99 | 1015.2 |
| 20260906063037 | 56 | 0 | 0.0 | 0.0 | 0.04 | 0.45 | 0.04 | 99 | 1015.1 |
| 20260906061538 | 56 | 0 | 0.0 | 0.0 | 0.04 | 0.45 | 0.04 | 99 | 1014.9 |
| 20260906060039 | 56 | 0 | 0.0 | 0.0 | 0.04 | 0.45 | 0.04 | 99 | 1015.0 |
| 20260906054539 | 56 | 0 | 0.0 | 0.0 | 0.01 | 0.42 | 0.01 | 99 | 1015.1 |
| 20260906053037 | 56 | 0 | 0.0 | 0.0 | 0.00 | 0.41 | 0.00 | 99 | 1015.0 |
| 20260906051541 | 56 | 0 | 0.0 | 0.0 | 0.00 | 0.41 | 0.00 | 99 | 1015.1 |
| 20260906050046 | 56 | 0 | 0.0 | 0.0 | 0.00 | 0.41 | 0.00 | 99 | 1015.2 |
| 20260906044539 | 56 | 0 | 0.0 | 0.0 | 0.00 | 0.41 | 0.00 | 98 | 1015.2 |
| 20260906043035 | 56 | 0 | 0.0 | 0.0 | 0.00 | 0.41 | 0.00 | 98 | 1015.0 |
| 20260906041536 | 56 | 0 | 0.0 | 0.0 | 0.01 | 0.41 | 0.00 | 98 | 1015.2 |
| 20260906040044 | 56 | 0 | 0.0 | 0.0 | 0.01 | 0.41 | 0.00 | 98 | 1015.2 |
| 20260906034537 | 56 | 0 | 0.0 | 0.0 | 0.01 | 0.41 | 0.41 | 98 | 1015.1 |
| 20260906033045 | 56 | 0 | 0.0 | 0.0 | 0.02 | 0.41 | 0.41 | 98 | 1014.9 |
| 20260906031546 | 57 | 0 | 0.0 | 0.0 | 0.02 | 0.40 | 0.40 | 98 | 1014.6 |
| 20260906030038 | 57 | 0 | 0.0 | 0.0 | 0.03 | 0.40 | 0.40 | 98 | 1014.6 |
| 20260906024538 | 57 | 0 | 0.0 | 0.0 | 0.03 | 0.40 | 0.40 | 97 | 1014.7 |
| 20260906023038 | 57 | 0 | 0.0 | 0.0 | 0.04 | 0.39 | 0.39 | 98 | 1014.8 |
| 20260906021539 | 57 | 0 | 0.0 | 0.0 | 0.11 | 0.38 | 0.38 | 98 | 1014.9 |
| 20260906020042 | 57 | 0 | 0.0 | 0.0 | 0.13 | 0.37 | 0.37 | 97 | 1015.0 |
| 20260906014540 | 57 | 0 | 0.0 | 0.0 | 0.15 | 0.37 | 0.37 | 97 | 1014.9 |
| 20260906013042 | 58 | 0 | 0.0 | 0.0 | 0.15 | 0.35 | 0.35 | 97 | 1014.8 |
| 20260906011542 | 58 | 0 | 0.0 | 0.0 | 0.09 | 0.27 | 0.27 | 97 | 1015.1 |
| 20260906010043 | 58 | 0 | 0.0 | 0.0 | 0.11 | 0.24 | 0.24 | 97 | 1014.8 |
| 20260906004544 | 58 | 0 | 0.0 | 0.0 | 0.16 | 0.22 | 0.22 | 97 | 1014.7 |
| 20260906003043 | 58 | 0 | 0.0 | 0.0 | 0.20 | 0.20 | 0.20 | 96 | 1014.7 |
| 20260906001540 | 59 | 0 | 0.0 | 0.0 | 0.17 | 0.17 | 0.17 | 95 | 1014.6 |
| 20260906000042 | 59 | 0 | 0.0 | 0.0 | 0.13 | 0.13 | 0.13 | 93 | 1014.4 |
| 20260905234542 | 61 | 0 | 0.0 | 0.0 | 0.06 | 0.06 | 0.06 | 91 | 1014.1 |
| 20260905233044 | 63 | 0 | 0.0 | 0.0 | 0.00 | 0.00 | 0.00 | 87 | 1014.0 |
| 20260905231540 | 64 | 0 | 0.0 | 0.0 | 0.00 | 0.00 | 0.00 | 85 | 1013.6 |
| 20260905230048 | 64 | 0 | 0.0 | 0.0 | 0.00 | 0.00 | 0.00 | 86 | 1013.4 |
| 20260905224558 | 65 | 0 | 0.0 | 0.0 | 0.00 | 0.00 | 0.00 | 86 | 1013.3 |
| 20260905223042 | 65 | 0 | 0.0 | 0.0 | 0.00 | 0.00 | 0.00 | 84 | 1013.1 |
| 20260905221549 | 65 | 0 | 0.0 | 0.0 | 0.00 | 0.00 | 0.00 | 83 | 1013.0 |
| 20260905220043 | 66 | 0 | 0.0 | 0.0 | 0.00 | 0.00 | 0.00 | 83 | 1013.1 |
| 20260905214540 | 66 | 0 | 0.0 | 0.0 | 0.00 | 0.00 | 0.00 | 83 | 1012.8 |
| 20260905213041 | 67 | 0 | 0.0 | 0.0 | 0.00 | 0.00 | 0.00 | 82 | 1012.7 |
| 20260905211543 | 67 | 0 | 0.0 | 0.0 | 0.00 | 0.00 | 0.00 | 79 | 1012.4 |
| 20260905210040 | 67 | 0 | 0.0 | 0.0 | 0.00 | 0.00 | 0.00 | 80 | 1012.5 |
| 20260905204542 | 67 | 0 | 0.0 | 0.0 | 0.00 | 0.00 | 0.00 | 79 | 1012.4 |
| 20260905203103 | 68 | 0 | 0.0 | 0.0 | 0.00 | 0.00 | 0.00 | 77 | 1012.3 |
| 20260905201545 | 68 | 0 | 0.0 | 0.0 | 0.00 | 0.00 | 0.00 | 76 | 1012.3 |
| 20260905200053 | 69 | 0 | 0.0 | 0.0 | 0.00 | 0.00 | 0.00 | 78 | 1012.2 |
| 20260905194542 | 68 | 0 | 0.0 | 0.0 | 0.00 | 0.00 | 0.00 | 79 | 1012.2 |
| 20260905193039 | 69 | 0 | 0.0 | 0.0 | 0.00 | 0.00 | 0.00 | 76 | 1012.2 |
| 20260905191537 | 68 | 0 | 0.0 | 0.0 | 0.00 | 0.00 | 0.00 | 77 | 1012.1 |
| 20260905190035 | 69 | 0 | 0.0 | 0.0 | 0.00 | 0.00 | 0.00 | 76 | 1012.1 |
| 20260905184542 | 70 | 0 | 0.0 | 0.0 | 0.00 | 0.00 | 0.00 | 74 | 1012.1 |
| 20260905183040 | 71 | 0 | 0.0 | 0.0 | 0.00 | 0.00 | 0.00 | 67 | 1011.9 |
| 20260905181552 | 71 | 0 | 0.0 | 0.0 | 0.00 | 0.00 | 0.00 | 70 | 1011.8 |
| 20260905180038 | 69 | 0 | 0.0 | 0.0 | 0.00 | 0.00 | 0.00 | 73 | 1012.0 |
| 20260905174548 | 70 | 0 | 0.0 | 0.0 | 0.00 | 0.00 | 0.00 | 72 | 1012.0 |
| 20260905173037 | 70 | 0 | 0.0 | 0.0 | 0.00 | 0.00 | 0.00 | 70 | 1012.0 |
| 20260905171544 | 71 | 0 | 0.0 | 0.0 | 0.00 | 0.00 | 0.00 | 68 | 1011.8 |
| 20260905170038 | 71 | 0 | 0.0 | 0.0 | 0.00 | 0.00 | 0.00 | 70 | 1011.8 |